Time;durP1;ratioP1;P1;durP2;ratioP2;P2;SDS_P1;SDS_P2;PMS_P1;PMS_P2;Temp;Humidity;BMP_temperature;BMP_pressure;BME280_temperature;BME280_humidity;BME280_pressure;Samples;Min_cycle;Max_cycle;Signal;HPM_P1;HPM_P2
2023/12/08 00:01:49;;;;;;;5.70;2.50;;;;;;;5.80;97.07;100731.56;108045;1287;22001;-61
2023/12/08 00:04:15;;;;;;;5.90;2.80;;;;;;;5.78;97.07;100733.79;108062;1288;21995;-61
2023/12/08 00:06:41;;;;;;;5.70;2.40;;;;;;;5.75;97.24;100733.23;108052;1287;22027;-61
2023/12/08 00:09:07;;;;;;;2.80;1.60;;;;;;;5.74;97.36;100731.84;108047;1284;21995;-61
2023/12/08 00:11:32;;;;;;;3.50;2.00;;;;;;;5.70;96.97;100726.73;108064;1288;23631;-69
2023/12/08 00:13:58;;;;;;;3.90;2.10;;;;;;;5.70;97.01;100726.91;108021;1288;22027;-60
2023/12/08 00:16:24;;;;;;;6.20;2.90;;;;;;;5.73;97.23;100729.73;108082;1281;21990;-68
2023/12/08 00:18:50;;;;;;;5.40;2.30;;;;;;;5.73;97.14;100728.70;107304;1289;1003132;-61
2023/12/08 00:21:16;;;;;;;3.30;2.00;;;;;;;5.72;97.13;100732.85;108077;1276;21997;-61
2023/12/08 00:23:41;;;;;;;6.00;2.10;;;;;;;5.68;97.54;100733.31;108091;1281;22461;-61
2023/12/08 00:26:07;;;;;;;5.90;1.90;;;;;;;5.67;97.15;100730.17;108041;1289;22003;-68
2023/12/08 00:28:33;;;;;;;3.60;2.30;;;;;;;5.67;97.33;100724.08;108058;1288;22007;-61
2023/12/08 00:30:58;;;;;;;5.00;2.50;;;;;;;5.68;97.54;100721.48;106550;1283;2002397;-61
2023/12/08 00:33:24;;;;;;;8.20;3.10;;;;;;;5.67;97.58;100720.42;108012;1289;21991;-69
2023/12/08 00:35:49;;;;;;;5.30;2.50;;;;;;;5.66;97.76;100717.98;108006;1289;21987;-68
2023/12/08 00:38:15;;;;;;;3.80;2.50;;;;;;;5.65;97.55;100717.79;108077;1283;21985;-68
2023/12/08 00:40:41;;;;;;;7.20;2.70;;;;;;;5.64;97.64;100719.00;108062;1288;21994;-68
2023/12/08 00:43:07;;;;;;;3.70;2.00;;;;;;;5.64;97.64;100717.96;108065;1277;22035;-67
2023/12/08 00:45:32;;;;;;;3.50;2.40;;;;;;;5.66;97.77;100716.06;108042;1284;22136;-68
2023/12/08 00:47:58;;;;;;;6.30;2.80;;;;;;;5.64;97.66;100715.34;108056;1289;21994;-69
2023/12/08 00:50:24;;;;;;;6.60;3.00;;;;;;;5.65;97.57;100712.75;108053;1289;21988;-68
2023/12/08 00:52:49;;;;;;;5.50;2.60;;;;;;;5.64;97.68;100709.59;108047;1289;21998;-68
2023/12/08 00:55:15;;;;;;;5.10;2.20;;;;;;;5.61;97.37;100699.97;107972;1287;22049;-61
2023/12/08 00:57:41;;;;;;;3.90;2.00;;;;;;;5.58;97.53;100698.71;108035;1281;24199;-62
2023/12/08 01:00:07;;;;;;;4.10;2.10;;;;;;;5.57;97.83;100693.65;108068;1276;21994;-69
2023/12/08 01:02:33;;;;;;;6.30;2.50;;;;;;;5.57;97.88;100689.99;108094;1285;24193;-62
2023/12/08 01:04:58;;;;;;;5.90;3.10;;;;;;;5.56;97.94;100683.89;107964;1288;21988;-62
2023/12/08 01:07:24;;;;;;;5.50;3.10;;;;;;;5.55;97.87;100680.39;108040;1286;21992;-69
2023/12/08 01:09:50;;;;;;;4.10;2.50;;;;;;;5.52;97.87;100681.91;107327;1288;1002406;-70
2023/12/08 01:12:16;;;;;;;4.20;2.50;;;;;;;5.51;97.80;100682.79;108075;1284;22195;-62
2023/12/08 01:14:41;;;;;;;4.10;2.40;;;;;;;5.50;98.20;100682.95;108095;1281;22029;-62
2023/12/08 01:17:07;;;;;;;5.00;2.70;;;;;;;5.51;98.00;100680.18;108073;1288;22037;-62
2023/12/08 01:19:32;;;;;;;6.30;3.90;;;;;;;5.51;98.05;100679.13;108003;1288;21989;-67
2023/12/08 01:21:58;;;;;;;7.00;2.70;;;;;;;5.50;98.27;100679.65;108009;1288;22002;-62
2023/12/08 01:24:24;;;;;;;5.10;2.90;;;;;;;5.51;98.23;100677.21;108133;1280;21999;-62
2023/12/08 01:26:49;;;;;;;4.40;2.80;;;;;;;5.52;98.38;100681.58;108061;1281;21992;-68
2023/12/08 01:29:16;;;;;;;10.50;3.20;;;;;;;5.53;98.49;100681.59;108038;1280;21991;-69
2023/12/08 01:31:42;;;;;;;3.90;2.10;;;;;;;5.55;98.35;100686.48;108095;1280;24186;-69
2023/12/08 01:34:08;;;;;;;5.90;3.10;;;;;;;5.56;98.25;100686.67;107936;1281;21997;-68
2023/12/08 01:36:33;;;;;;;3.80;2.50;;;;;;;5.57;98.25;100685.13;107965;1280;21988;-69
2023/12/08 01:38:59;;;;;;;5.80;2.70;;;;;;;5.57;98.41;100678.16;108011;1288;23698;-62
2023/12/08 01:41:25;;;;;;;5.90;2.90;;;;;;;5.58;98.24;100668.77;108065;1283;22071;-69
2023/12/08 01:43:50;;;;;;;4.00;2.30;;;;;;;5.57;98.35;100665.46;108088;1288;21995;-70
2023/12/08 01:46:17;;;;;;;4.30;2.60;;;;;;;5.56;98.29;100664.20;108041;1289;21999;-62
2023/12/08 01:48:43;;;;;;;6.40;3.90;;;;;;;5.56;98.44;100669.09;107327;1283;1002577;-62
2023/12/08 01:51:09;;;;;;;7.60;3.30;;;;;;;5.58;98.66;100669.65;108055;1283;24437;-69
2023/12/08 01:53:35;;;;;;;4.70;2.60;;;;;;;5.58;98.33;100668.60;108017;1277;21989;-62
2023/12/08 01:56:01;;;;;;;3.80;2.60;;;;;;;5.59;98.57;100670.17;108055;1288;23641;-62
2023/12/08 01:58:27;;;;;;;5.50;2.90;;;;;;;5.59;98.36;100677.14;108076;1280;22007;-69
2023/12/08 02:00:53;;;;;;;5.90;2.80;;;;;;;5.58;98.45;100679.40;108074;1283;23708;-68
2023/12/08 02:03:19;;;;;;;4.60;2.80;;;;;;;5.58;98.60;100684.96;108083;1278;21999;-62
2023/12/08 02:05:50;;;;;;;5.60;3.40;;;;;;;5.57;98.36;100688.78;107815;1288;21992;-62
2023/12/08 02:08:16;;;;;;;4.60;2.90;;;;;;;5.56;98.46;100688.76;108112;1286;21992;-62
2023/12/08 02:10:42;;;;;;;4.80;2.70;;;;;;;5.55;98.42;100689.44;108179;1283;21998;-62
2023/12/08 02:13:08;;;;;;;4.60;2.60;;;;;;;5.53;98.43;100686.80;108119;1283;22002;-69
2023/12/08 02:15:33;;;;;;;5.90;2.90;;;;;;;5.53;98.41;100686.98;108103;1281;21988;-62
2023/12/08 02:17:59;;;;;;;6.20;3.90;;;;;;;5.52;98.57;100686.63;107875;1288;22034;-67
2023/12/08 02:20:25;;;;;;;4.90;2.60;;;;;;;5.50;98.94;100686.79;107853;1279;21990;-68
2023/12/08 02:22:53;;;;;;;9.40;2.90;;;;;;;5.52;98.88;100685.23;108161;1283;21995;-68
2023/12/08 02:25:19;;;;;;;7.10;2.70;;;;;;;5.53;98.87;100682.98;108138;1276;22008;-68
2023/12/08 02:27:44;;;;;;;5.50;2.80;;;;;;;5.54;98.63;100686.30;108140;1280;22070;-62
2023/12/08 02:30:10;;;;;;;4.70;2.90;;;;;;;5.55;98.76;100688.75;108039;1275;22025;-65
2023/12/08 02:33:09;;;;;;;7.10;3.20;;;;;;;5.53;99.03;100689.08;107955;1288;22015;-62
2023/12/08 02:35:37;;;;;;;7.10;2.70;;;;;;;5.50;99.07;100688.52;108086;1288;21983;-69
2023/12/08 02:38:03;;;;;;;6.60;2.70;;;;;;;5.48;98.90;100685.02;108172;1286;23155;-61
2023/12/08 02:40:29;;;;;;;5.80;2.90;;;;;;;5.49;99.02;100683.13;108049;1278;23768;-61
2023/12/08 02:42:54;;;;;;;5.00;3.30;;;;;;;5.51;99.22;100688.01;108039;1288;22000;-61
2023/12/08 02:45:20;;;;;;;5.80;3.50;;;;;;;5.52;99.17;100691.14;108113;1283;21957;-61
2023/12/08 02:47:45;;;;;;;9.60;3.40;;;;;;;5.53;99.24;100694.98;108067;1288;21990;-61
2023/12/08 02:50:11;;;;;;;9.70;2.70;;;;;;;5.55;99.25;100699.53;108112;1287;21996;-62
2023/12/08 02:52:36;;;;;;;9.90;3.60;;;;;;;5.55;99.19;100703.55;108113;1285;21990;-69
2023/12/08 02:55:03;;;;;;;4.50;2.80;;;;;;;5.57;99.27;100703.75;108173;1280;22452;-62
2023/12/08 02:57:29;;;;;;;5.70;3.20;;;;;;;5.58;99.15;100704.98;108190;1287;22323;-62
2023/12/08 02:59:54;;;;;;;7.80;3.90;;;;;;;5.60;98.97;100703.09;108135;1288;22460;-61
2023/12/08 03:02:20;;;;;;;7.20;3.60;;;;;;;5.61;99.15;100706.59;108026;1288;23094;-62
2023/12/08 03:04:46;;;;;;;7.20;3.00;;;;;;;5.60;99.15;100706.06;108091;1287;22029;-61
2023/12/08 03:07:12;;;;;;;4.90;3.00;;;;;;;5.59;99.32;100703.95;108095;1280;22040;-62
2023/12/08 03:09:37;;;;;;;8.20;2.70;;;;;;;5.60;99.53;100705.36;108127;1282;22276;-70
2023/12/08 03:12:03;;;;;;;5.70;2.60;;;;;;;5.62;99.48;100705.91;108236;1287;21990;-61
2023/12/08 03:14:29;;;;;;;6.00;2.70;;;;;;;5.62;99.42;100706.43;108148;1286;21998;-62
2023/12/08 03:16:55;;;;;;;7.40;3.80;;;;;;;5.61;99.27;100702.95;108193;1286;22001;-69
2023/12/08 03:19:20;;;;;;;9.50;3.80;;;;;;;5.61;99.37;100697.72;108105;1285;22019;-64
2023/12/08 03:21:46;;;;;;;9.10;3.30;;;;;;;5.58;99.63;100695.75;108078;1288;22000;-68
2023/12/08 03:24:12;;;;;;;4.80;2.80;;;;;;;5.59;99.49;100694.20;108185;1283;21992;-69
2023/12/08 03:26:38;;;;;;;7.40;3.00;;;;;;;5.58;99.66;100689.15;108126;1287;22000;-69
2023/12/08 03:29:03;;;;;;;5.80;2.90;;;;;;;5.60;99.56;100684.46;108215;1284;21996;-61
2023/12/08 03:31:30;;;;;;;8.10;4.00;;;;;;;5.61;99.64;100685.35;108167;1287;21984;-62
2023/12/08 03:33:56;;;;;;;6.60;3.30;;;;;;;5.61;99.61;100684.84;107965;1287;21990;-62
2023/12/08 03:36:22;;;;;;;5.40;3.50;;;;;;;5.62;99.66;100678.40;108060;1289;21989;-69
2023/12/08 03:38:47;;;;;;;5.50;3.40;;;;;;;5.62;99.65;100677.54;108083;1288;22004;-62
2023/12/08 03:41:15;;;;;;;8.70;3.20;;;;;;;5.62;99.74;100679.80;108126;1287;21997;-70
2023/12/08 03:43:41;;;;;;;5.90;3.80;;;;;;;5.60;99.61;100678.39;108219;1287;21987;-67
2023/12/08 03:46:07;;;;;;;6.70;3.80;;;;;;;5.60;99.81;100679.94;108166;1288;21963;-62
2023/12/08 03:48:34;;;;;;;8.10;4.00;;;;;;;5.59;99.71;100680.80;108123;1288;22045;-69
2023/12/08 03:51:00;;;;;;;5.90;3.50;;;;;;;5.58;99.68;100683.23;108189;1288;22008;-62
2023/12/08 03:53:25;;;;;;;7.20;3.90;;;;;;;5.59;99.65;100682.88;108176;1275;21995;-68
2023/12/08 03:55:51;;;;;;;8.10;3.30;;;;;;;5.60;99.69;100687.61;108189;1284;22523;-62
2023/12/08 03:58:16;;;;;;;7.30;2.90;;;;;;;5.63;99.79;100690.60;108052;1288;22010;-70
2023/12/08 04:00:42;;;;;;;6.40;3.80;;;;;;;5.66;99.90;100693.95;108154;1288;22030;-61
2023/12/08 04:03:08;;;;;;;6.80;3.80;;;;;;;5.67;99.95;100696.92;108066;1288;22050;-69
2023/12/08 04:05:33;;;;;;;7.40;3.80;;;;;;;5.67;99.63;100696.76;108047;1283;21990;-62
2023/12/08 04:07:59;;;;;;;9.50;3.40;;;;;;;5.68;99.82;100697.13;108085;1281;21988;-70
2023/12/08 04:10:24;;;;;;;5.70;3.10;;;;;;;5.70;99.78;100698.52;107959;1288;22002;-61
2023/12/08 04:12:50;;;;;;;8.50;2.80;;;;;;;5.71;99.74;100694.89;108037;1283;22458;-69
2023/12/08 04:15:15;;;;;;;6.80;3.40;;;;;;;5.72;99.80;100697.70;108163;1280;21992;-63
2023/12/08 04:17:41;;;;;;;11.00;4.10;;;;;;;5.73;99.69;100704.15;108218;1287;23790;-70
2023/12/08 04:20:07;;;;;;;6.00;4.10;;;;;;;5.75;99.73;100703.45;108161;1274;23538;-62
2023/12/08 04:22:33;;;;;;;10.80;3.50;;;;;;;5.77;99.82;100707.66;108262;1278;22021;-69
2023/12/08 04:24:58;;;;;;;7.60;3.40;;;;;;;5.80;99.94;100705.61;108204;1281;22003;-70
2023/12/08 04:27:24;;;;;;;6.70;3.40;;;;;;;5.80;99.87;100704.05;108110;1288;22010;-69
2023/12/08 04:29:49;;;;;;;7.30;3.60;;;;;;;5.81;99.70;100704.40;108150;1288;22073;-70
2023/12/08 04:32:15;;;;;;;4.30;2.70;;;;;;;5.81;99.80;100704.94;108197;1283;21994;-62
2023/12/08 04:34:41;;;;;;;7.00;3.70;;;;;;;5.82;99.72;100704.94;108223;1287;21996;-69
2023/12/08 04:37:06;;;;;;;8.40;3.50;;;;;;;5.81;99.78;100701.27;108226;1282;22026;-70
2023/12/08 04:39:32;;;;;;;10.00;3.60;;;;;;;5.79;99.70;100697.77;108169;1288;22376;-70
2023/12/08 04:41:57;;;;;;;6.40;3.60;;;;;;;5.80;99.60;100700.23;108092;1283;21992;-70
2023/12/08 04:44:23;;;;;;;9.90;3.60;;;;;;;5.83;99.64;100698.70;108272;1277;21990;-69
2023/12/08 04:46:48;;;;;;;5.00;3.00;;;;;;;5.85;99.86;100701.15;108167;1275;21987;-70
2023/12/08 04:49:14;;;;;;;7.10;2.70;;;;;;;5.85;99.97;100699.93;108199;1277;22003;-69
2023/12/08 04:51:41;;;;;;;4.90;2.80;;;;;;;5.85;100.00;100699.58;108032;1288;22290;-61
2023/12/08 04:54:07;;;;;;;7.50;3.60;;;;;;;5.85;99.80;100700.45;108126;1284;22618;-61
2023/12/08 04:56:32;;;;;;;6.10;3.10;;;;;;;5.85;99.69;100699.92;108108;1279;21982;-62
2023/12/08 04:58:58;;;;;;;6.20;2.90;;;;;;;5.85;99.80;100701.66;108077;1283;22165;-62
2023/12/08 05:01:23;;;;;;;7.00;2.70;;;;;;;5.84;99.85;100699.55;108079;1286;22001;-70
2023/12/08 05:03:50;;;;;;;8.80;2.90;;;;;;;5.91;99.37;100696.35;108071;1275;21996;-62
2023/12/08 05:06:16;;;;;;;5.30;2.60;;;;;;;5.87;99.67;100698.91;108072;1283;21996;-70
2023/12/08 05:08:41;;;;;;;5.60;2.70;;;;;;;5.87;99.91;100704.65;108035;1277;24395;-69
2023/12/08 05:11:07;;;;;;;5.10;2.80;;;;;;;5.86;99.89;100703.77;108045;1284;21992;-62
2023/12/08 05:13:33;;;;;;;7.10;3.20;;;;;;;5.85;99.93;100700.98;108036;1287;21966;-69
2023/12/08 05:15:59;;;;;;;4.70;3.20;;;;;;;5.85;99.70;100695.92;108051;1287;22012;-67
2023/12/08 05:18:25;;;;;;;8.90;2.70;;;;;;;5.84;99.82;100698.16;108060;1277;22032;-63
2023/12/08 05:20:51;;;;;;;18.00;4.00;;;;;;;5.84;99.88;100700.79;108200;1287;22456;-67
2023/12/08 05:23:18;;;;;;;11.50;2.60;;;;;;;5.88;99.98;100701.36;108083;1288;24042;-63
2023/12/08 05:25:44;;;;;;;16.70;3.40;;;;;;;5.94;100.00;100698.48;108156;1281;21950;-67
2023/12/08 05:28:10;;;;;;;11.20;2.80;;;;;;;6.01;100.00;100696.98;108157;1280;21996;-64
2023/12/08 05:30:35;;;;;;;10.90;3.00;;;;;;;6.07;100.00;100695.87;108109;1288;21986;-63
2023/12/08 05:33:02;;;;;;;15.40;2.80;;;;;;;6.11;100.00;100697.66;108176;1284;21989;-62
2023/12/08 05:35:28;;;;;;;6.50;2.40;;;;;;;6.17;100.00;100699.29;108270;1287;21995;-61
2023/12/08 05:37:56;;;;;;;13.10;2.30;;;;;;;6.21;100.00;100700.54;107385;1288;1002354;-68
2023/12/08 05:40:22;;;;;;;18.40;3.80;;;;;;;6.31;99.98;100701.17;108109;1287;23810;-62
2023/12/08 05:42:48;;;;;;;27.20;3.50;;;;;;;6.25;99.98;100704.77;108121;1278;21992;-63
2023/12/08 05:45:14;;;;;;;24.40;4.00;;;;;;;6.28;100.00;100706.90;108116;1287;21997;-69
2023/12/08 05:47:39;;;;;;;22.00;3.30;;;;;;;6.34;100.00;100708.36;108108;1288;23663;-68
2023/12/08 05:50:05;;;;;;;16.40;3.20;;;;;;;6.43;100.00;100707.73;108170;1287;21990;-69
2023/12/08 05:52:32;;;;;;;20.80;3.30;;;;;;;6.55;100.00;100703.68;108171;1288;23057;-70
2023/12/08 05:54:57;;;;;;;18.20;3.10;;;;;;;6.61;100.00;100705.83;108175;1288;22000;-64
2023/12/08 05:57:23;;;;;;;17.60;2.90;;;;;;;6.63;100.00;100707.23;108159;1287;21990;-69
2023/12/08 05:59:49;;;;;;;21.20;4.20;;;;;;;6.64;100.00;100711.60;108041;1287;21989;-69
2023/12/08 06:02:17;;;;;;;14.90;2.40;;;;;;;6.67;100.00;100712.67;108072;1283;21990;-64
2023/12/08 06:04:43;;;;;;;17.10;3.10;;;;;;;6.69;100.00;100712.17;108133;1288;21987;-63
2023/12/08 06:07:08;;;;;;;23.90;3.50;;;;;;;6.71;100.00;100711.33;108147;1288;21990;-64
2023/12/08 06:09:34;;;;;;;14.90;2.40;;;;;;;6.75;100.00;100715.54;108109;1288;21996;-69
2023/12/08 06:11:59;;;;;;;11.10;2.10;;;;;;;6.76;100.00;100712.05;108055;1288;22188;-71
2023/12/08 06:14:25;;;;;;;6.30;2.60;;;;;;;6.75;100.00;100712.94;108049;1286;21991;-71
2023/12/08 06:16:51;;;;;;;17.40;3.40;;;;;;;6.70;100.00;100716.71;107352;1284;1002546;-72
2023/12/08 06:19:17;;;;;;;10.40;2.50;;;;;;;6.68;100.00;100724.89;108065;1288;21997;-63
2023/12/08 06:21:42;;;;;;;13.50;2.70;;;;;;;6.65;100.00;100725.55;108116;1283;22001;-62
2023/12/08 06:24:08;;;;;;;9.00;2.20;;;;;;;6.60;100.00;100732.84;108119;1287;23612;-62
2023/12/08 06:26:36;;;;;;;6.80;2.30;;;;;;;6.51;100.00;100732.76;108048;1288;21997;-62
2023/12/08 06:29:02;;;;;;;15.40;2.30;;;;;;;6.45;100.00;100728.85;107915;1287;22083;-62
2023/12/08 06:31:27;;;;;;;9.50;3.30;;;;;;;6.41;100.00;100727.94;108091;1284;22046;-64
2023/12/08 06:33:53;;;;;;;11.90;3.40;;;;;;;6.42;100.00;100727.42;108135;1283;21984;-63
2023/12/08 06:36:19;;;;;;;9.30;2.80;;;;;;;6.43;100.00;100724.82;108121;1287;21989;-72
2023/12/08 06:38:44;;;;;;;6.70;2.80;;;;;;;6.41;100.00;100723.77;108132;1288;21988;-62
2023/12/08 06:41:11;;;;;;;9.70;2.40;;;;;;;6.40;100.00;100721.84;108190;1287;21989;-62
2023/12/08 06:43:37;;;;;;;9.30;2.60;;;;;;;6.43;100.00;100724.13;108070;1284;22021;-70
2023/12/08 06:46:03;;;;;;;5.70;2.10;;;;;;;6.45;100.00;100722.39;108171;1287;191283;-71
2023/12/08 06:48:29;;;;;;;3.50;2.00;;;;;;;6.47;100.00;100722.25;108189;1288;23699;-70
2023/12/08 06:50:54;;;;;;;8.90;2.50;;;;;;;6.47;100.00;100721.38;108027;1288;22001;-71
2023/12/08 06:53:20;;;;;;;19.70;5.20;;;;;;;6.46;100.00;100723.11;108024;1289;23061;-63
2023/12/08 06:55:46;;;;;;;8.70;3.20;;;;;;;6.43;100.00;100725.88;108049;1288;21989;-63
2023/12/08 06:58:11;;;;;;;7.50;2.60;;;;;;;6.37;100.00;100725.98;108016;1288;21991;-70
2023/12/08 07:00:37;;;;;;;6.10;2.10;;;;;;;6.31;100.00;100726.45;107345;1279;1002573;-63
2023/12/08 07:03:03;;;;;;;6.00;2.20;;;;;;;6.27;100.00;100723.78;108048;1281;23580;-63
2023/12/08 07:05:29;;;;;;;8.20;2.20;;;;;;;6.23;100.00;100721.83;108070;1281;22256;-64
2023/12/08 07:07:56;;;;;;;4.90;2.40;;;;;;;6.22;100.00;100720.95;108072;1286;23612;-69
2023/12/08 07:10:21;;;;;;;5.70;2.80;;;;;;;6.20;100.00;100719.53;108083;1286;21988;-70
2023/12/08 07:12:47;;;;;;;4.60;2.70;;;;;;;6.17;100.00;100719.85;108060;1288;23622;-64
2023/12/08 07:15:13;;;;;;;5.70;3.10;;;;;;;6.18;100.00;100720.72;108114;1288;21998;-63
2023/12/08 07:17:39;;;;;;;8.00;2.80;;;;;;;6.19;100.00;100718.64;108086;1288;21993;-63
2023/12/08 07:20:06;;;;;;;6.70;3.10;;;;;;;6.18;100.00;100717.77;108057;1287;21995;-69
2023/12/08 07:22:32;;;;;;;6.10;2.50;;;;;;;6.18;100.00;100716.21;108096;1284;21989;-64
2023/12/08 07:24:59;;;;;;;5.00;2.40;;;;;;;6.20;100.00;100713.94;108007;1288;23058;-63
2023/12/08 07:27:24;;;;;;;10.60;5.00;;;;;;;6.20;100.00;100714.13;108121;1288;22286;-64
2023/12/08 07:29:50;;;;;;;5.90;3.70;;;;;;;6.21;100.00;100718.83;108050;1283;21981;-66
2023/12/08 07:32:16;;;;;;;8.10;3.70;;;;;;;6.20;100.00;100719.69;108170;1277;21983;-64
2023/12/08 07:34:41;;;;;;;8.60;3.70;;;;;;;6.20;100.00;100720.56;108181;1288;21983;-63
2023/12/08 07:37:07;;;;;;;4.80;2.80;;;;;;;6.19;100.00;100722.98;108173;1287;23487;-63
2023/12/08 07:39:33;;;;;;;6.10;3.00;;;;;;;6.19;100.00;100722.30;108075;1288;23661;-68
2023/12/08 07:41:58;;;;;;;7.20;3.30;;;;;;;6.20;100.00;100724.23;108119;1287;23705;-70
2023/12/08 07:44:25;;;;;;;4.60;2.90;;;;;;;6.22;100.00;100726.52;108088;1287;21979;-64
2023/12/08 07:46:51;;;;;;;5.70;3.20;;;;;;;6.24;100.00;100727.94;107985;1288;21991;-64
2023/12/08 07:49:16;;;;;;;7.40;3.60;;;;;;;6.25;100.00;100727.41;107355;1278;1002654;-63
2023/12/08 07:51:42;;;;;;;6.40;3.20;;;;;;;6.25;100.00;100733.17;107966;1288;23726;-63
2023/12/08 07:54:08;;;;;;;6.10;3.40;;;;;;;6.27;100.00;100734.94;108109;1287;24411;-63
2023/12/08 07:56:33;;;;;;;5.30;2.80;;;;;;;6.30;100.00;100738.45;107979;1288;21991;-63
2023/12/08 07:59:00;;;;;;;3.80;2.50;;;;;;;6.29;100.00;100737.05;108106;1284;21993;-63
2023/12/08 08:01:26;;;;;;;5.80;3.20;;;;;;;6.31;100.00;100737.60;108188;1287;24325;-69
2023/12/08 08:03:51;;;;;;;8.30;3.50;;;;;;;6.33;100.00;100737.98;108127;1288;23647;-64
2023/12/08 08:06:17;;;;;;;6.50;3.30;;;;;;;6.35;100.00;100738.17;108089;1281;21994;-70
2023/12/08 08:08:42;;;;;;;4.50;3.10;;;;;;;6.37;100.00;100738.90;108072;1288;21987;-64
2023/12/08 08:11:09;;;;;;;4.60;3.00;;;;;;;6.39;100.00;100735.95;108102;1288;21996;-70
2023/12/08 08:13:35;;;;;;;5.00;2.70;;;;;;;6.39;100.00;100737.35;108126;1289;21997;-70
2023/12/08 08:16:01;;;;;;;5.50;3.50;;;;;;;6.41;100.00;100738.73;108056;1289;21987;-65
2023/12/08 08:18:29;;;;;;;7.20;5.10;;;;;;;6.42;100.00;100737.17;108071;1288;21991;-65
2023/12/08 08:20:55;;;;;;;6.70;4.20;;;;;;;6.44;100.00;100738.25;107361;1277;1003137;-66
2023/12/08 08:23:21;;;;;;;5.30;3.00;;;;;;;6.45;100.00;100740.36;108104;1283;21959;-65
2023/12/08 08:25:47;;;;;;;6.10;2.80;;;;;;;6.44;100.00;100739.30;108083;1288;22515;-65
2023/12/08 08:28:13;;;;;;;4.10;2.30;;;;;;;6.45;100.00;100735.13;108051;1276;21992;-65
2023/12/08 08:30:42;;;;;;;7.90;2.60;;;;;;;6.47;100.00;100735.85;108104;1288;22177;-64
2023/12/08 08:33:08;;;;;;;4.10;2.30;;;;;;;6.49;100.00;100734.30;107943;1277;21977;-65
2023/12/08 08:35:33;;;;;;;5.70;2.90;;;;;;;6.53;100.00;100732.61;108064;1288;21988;-65
2023/12/08 08:37:59;;;;;;;4.70;2.50;;;;;;;6.54;100.00;100732.27;108054;1284;22746;-65
2023/12/08 08:40:25;;;;;;;4.00;2.50;;;;;;;6.54;100.00;100731.73;107870;1288;21991;-64
2023/12/08 08:42:51;;;;;;;5.10;2.30;;;;;;;6.53;100.00;100731.04;107848;1288;21987;-65
2023/12/08 08:45:19;;;;;;;4.50;2.40;;;;;;;6.53;100.00;100731.04;108102;1288;21987;-65
2023/12/08 08:47:45;;;;;;;5.00;2.20;;;;;;;6.54;100.00;100730.52;107861;1288;21985;-65
2023/12/08 08:50:11;;;;;;;4.00;2.30;;;;;;;6.55;100.00;100729.66;108091;1288;22028;-65
2023/12/08 08:52:36;;;;;;;5.00;2.80;;;;;;;6.56;100.00;100728.61;108032;1276;21983;-66
2023/12/08 08:55:04;;;;;;;7.10;3.00;;;;;;;6.55;100.00;100729.66;108027;1279;21986;-66
2023/12/08 08:57:30;;;;;;;4.20;2.20;;;;;;;6.53;100.00;100727.37;107324;1288;1002375;-70
2023/12/08 08:59:56;;;;;;;4.90;2.80;;;;;;;6.53;100.00;100725.80;107884;1280;21991;-66
2023/12/08 09:02:22;;;;;;;5.20;3.00;;;;;;;6.52;100.00;100726.84;108077;1288;24415;-66
2023/12/08 09:04:47;;;;;;;10.50;3.80;;;;;;;6.52;100.00;100720.56;108083;1288;22029;-66
2023/12/08 09:19:17;;;;;;;5.90;4.00;;;;;;;3.80;100.00;100730.54;107371;1292;557737;-71
2023/12/08 09:21:43;;;;;;;7.10;4.40;;;;;;;5.59;100.00;100719.80;107001;1290;1002882;-71
2023/12/08 09:24:08;;;;;;;6.50;3.60;;;;;;;5.94;100.00;100720.08;106703;1294;1003105;-64
2023/12/08 09:26:34;;;;;;;5.80;3.10;;;;;;;6.10;100.00;100718.89;107760;1294;22008;-70
2023/12/08 09:29:00;;;;;;;4.50;3.00;;;;;;;6.19;100.00;100718.47;107842;1290;21989;-65
2023/12/08 09:31:26;;;;;;;4.80;2.80;;;;;;;6.26;100.00;100723.60;107772;1287;189174;-64
2023/12/08 09:33:52;;;;;;;5.10;3.20;;;;;;;6.32;100.00;100720.53;107969;1286;21992;-71
2023/12/08 09:36:18;;;;;;;4.70;2.80;;;;;;;6.36;100.00;100718.31;107913;1289;22003;-70
2023/12/08 09:38:44;;;;;;;6.50;3.60;;;;;;;6.38;100.00;100715.38;107885;1289;21994;-66
2023/12/08 09:41:09;;;;;;;7.00;3.70;;;;;;;6.42;100.00;100713.30;107867;1289;22026;-71
2023/12/08 09:43:42;;;;;;;4.70;3.10;;;;;;;6.45;100.00;100714.39;107963;1289;22025;-65
2023/12/08 09:46:08;;;;;;;5.40;3.20;;;;;;;6.46;100.00;100709.70;107955;1280;22019;-71
2023/12/08 09:48:34;;;;;;;5.00;2.70;;;;;;;6.48;100.00;100708.66;107817;1280;21985;-71
2023/12/08 09:51:00;;;;;;;4.90;2.40;;;;;;;6.48;100.00;100705.88;107906;1289;21999;-65
2023/12/08 09:53:26;;;;;;;5.40;2.70;;;;;;;6.51;100.00;100708.52;107791;1289;23716;-70
2023/12/08 09:55:51;;;;;;;4.50;2.30;;;;;;;6.54;100.00;100708.39;107876;1289;23222;-64
2023/12/08 09:58:17;;;;;;;5.10;3.30;;;;;;;6.57;100.00;100706.83;107921;1289;21992;-69
2023/12/08 10:00:43;;;;;;;4.70;2.90;;;;;;;6.56;100.00;100701.23;107839;1288;21987;-68
2023/12/08 10:03:09;;;;;;;5.70;3.30;;;;;;;6.55;100.00;100697.74;107851;1288;21984;-69
2023/12/08 10:05:35;;;;;;;4.90;2.20;;;;;;;6.55;100.00;100695.13;107843;1283;21993;-69
2023/12/08 10:08:01;;;;;;;3.70;2.50;;;;;;;6.55;100.00;100692.87;107915;1286;21991;-66
2023/12/08 10:10:27;;;;;;;3.90;2.80;;;;;;;6.57;100.00;100692.36;108057;1288;21988;-69
2023/12/08 10:12:52;;;;;;;5.70;2.40;;;;;;;6.57;100.00;100693.05;108010;1286;21995;-65
2023/12/08 10:15:18;;;;;;;4.30;2.80;;;;;;;6.57;100.00;100690.78;108022;1288;21993;-64
2023/12/08 10:17:48;;;;;;;5.70;3.20;;;;;;;6.56;100.00;100691.65;108023;1283;21995;-69
2023/12/08 10:20:14;;;;;;;7.30;3.50;;;;;;;6.55;100.00;100692.52;108012;1288;21990;-65
2023/12/08 10:22:47;;;;;;;4.10;2.20;;;;;;;6.55;100.00;100691.48;108039;1277;22667;-70
2023/12/08 10:25:16;;;;;;;3.60;2.30;;;;;;;6.55;100.00;100696.36;108009;1288;21999;-65
2023/12/08 10:27:46;;;;;;;4.70;3.40;;;;;;;6.57;100.00;100700.75;107836;1288;21996;-65
2023/12/08 10:30:12;;;;;;;6.40;2.80;;;;;;;6.60;100.00;100697.63;108046;1288;21999;-69
2023/12/08 10:32:39;;;;;;;9.40;3.70;;;;;;;6.59;100.00;100697.97;107939;1276;21993;-69
2023/12/08 10:35:05;;;;;;;4.90;2.70;;;;;;;6.58;100.00;100699.00;107971;1276;21989;-69
2023/12/08 10:37:31;;;;;;;4.70;2.60;;;;;;;6.58;100.00;100695.86;107960;1288;22070;-70
2023/12/08 10:39:58;;;;;;;6.20;3.60;;;;;;;6.55;100.00;100691.12;107914;1289;21995;-71
2023/12/08 10:42:24;;;;;;;5.70;3.20;;;;;;;6.56;100.00;100694.97;108001;1287;24086;-70
2023/12/08 10:44:50;;;;;;;3.40;1.80;;;;;;;6.58;100.00;100692.90;107937;1289;22858;-70
2023/12/08 10:47:17;;;;;;;3.60;1.50;;;;;;;6.59;100.00;100696.56;107699;1289;23078;-71
2023/12/08 10:49:42;;;;;;;3.10;1.50;;;;;;;6.58;100.00;100695.52;108057;1288;23078;-64
2023/12/08 10:52:08;;;;;;;5.20;2.30;;;;;;;6.60;100.00;100694.48;107866;1289;21988;-64
2023/12/08 10:54:34;;;;;;;3.50;2.30;;;;;;;6.61;100.00;100696.58;107996;1289;22450;-64
2023/12/08 10:56:59;;;;;;;3.40;1.80;;;;;;;6.61;100.00;100700.95;107963;1289;21988;-64
2023/12/08 10:59:25;;;;;;;4.20;1.80;;;;;;;6.60;100.00;100702.69;107641;1289;21991;-66
2023/12/08 11:02:00;;;;;;;3.00;1.70;;;;;;;6.61;100.00;100702.70;107990;1289;22088;-64
2023/12/08 11:04:26;;;;;;;3.30;1.70;;;;;;;6.61;100.00;100700.95;107865;1289;21992;-71
2023/12/08 11:07:08;;;;;;;3.20;1.50;;;;;;;6.63;100.00;100699.39;107803;1289;24377;-73
2023/12/08 11:09:35;;;;;;;3.50;2.10;;;;;;;6.65;100.00;100701.84;107770;1289;22457;-72
2023/12/08 11:12:03;;;;;;;6.10;2.40;;;;;;;6.63;100.00;100702.18;108004;1289;23063;-70
2023/12/08 11:14:41;;;;;;;3.80;2.40;;;;;;;6.60;100.00;100700.07;107855;1289;22843;-73
2023/12/08 11:17:47;;;;;;;3.80;2.10;;;;;;;6.58;100.00;100701.27;107972;1289;21983;-65
2023/12/08 11:20:13;;;;;;;3.50;2.00;;;;;;;6.56;100.00;100698.63;107951;1286;21984;-72
2023/12/08 11:22:39;;;;;;;4.10;1.60;;;;;;;6.57;100.00;100696.71;107817;1289;22452;-64
2023/12/08 11:25:08;;;;;;;3.20;2.00;;;;;;;6.58;100.00;100697.77;107219;1288;1002608;-65
2023/12/08 11:27:49;;;;;;;3.50;2.20;;;;;;;6.58;100.00;100693.43;107930;1289;23770;-71